Time;durP1;ratioP1;P1;durP2;ratioP2;P2;SDS_P1;SDS_P2;PMS_P1;PMS_P2;Temp;Humidity;BMP_temperature;BMP_pressure;BME280_temperature;BME280_humidity;BME280_pressure;Samples;Min_cycle;Max_cycle;Signal;HPM_P1;HPM_P2
2023/10/16 00:01:48;;;;;;;4.32;1.25;;;7.70;99.90;;;;;;5052854;28;20471;-66
2023/10/16 00:04:14;;;;;;;7.07;2.15;;;7.70;99.90;;;;;;5051544;28;20033;-65
2023/10/16 00:06:39;;;;;;;5.82;1.63;;;7.70;99.90;;;;;;5052549;28;20823;-65
2023/10/16 00:09:14;;;;;;;6.45;1.55;;;7.70;99.90;;;;;;5051930;28;20033;-66
2023/10/16 00:11:40;;;;;;;4.32;1.50;;;7.70;99.90;;;;;;5048675;28;20116;-66
2023/10/16 00:14:18;;;;;;;8.93;1.63;;;7.70;99.90;;;;;;5044632;28;20080;-66
2023/10/16 00:16:44;;;;;;;5.80;1.55;;;7.70;99.90;;;;;;5046986;28;20040;-66
2023/10/16 00:19:11;;;;;;;8.25;1.50;;;7.70;99.90;;;;;;5050092;28;20037;-66
2023/10/16 00:21:43;;;;;;;3.55;1.23;;;7.70;99.90;;;;;;5050984;28;20128;-66
2023/10/16 00:24:10;;;;;;;4.50;1.38;;;7.70;99.90;;;;;;5042178;28;20037;-66
2023/10/16 00:26:36;;;;;;;4.45;1.30;;;7.70;99.90;;;;;;5052130;28;20033;-66
2023/10/16 00:29:07;;;;;;;6.50;1.33;;;7.70;99.90;;;;;;5042946;28;20039;-66
2023/10/16 00:31:35;;;;;;;3.67;1.20;;;7.70;99.90;;;;;;5049865;28;20041;-66
2023/10/16 00:34:02;;;;;;;4.32;1.60;;;7.70;99.90;;;;;;5046655;28;20033;-66
2023/10/16 00:36:28;;;;;;;2.53;1.05;;;7.70;99.90;;;;;;5052249;28;20322;-66
2023/10/16 00:38:53;;;;;;;5.78;1.10;;;7.70;99.90;;;;;;5041973;28;20463;-66
2023/10/16 00:41:28;;;;;;;4.45;1.08;;;7.70;99.90;;;;;;5050802;28;20033;-66
2023/10/16 00:43:56;;;;;;;2.33;0.98;;;7.80;99.90;;;;;;5046249;28;20044;-66
2023/10/16 00:46:36;;;;;;;4.00;1.08;;;7.80;99.90;;;;;;5044254;28;20526;-66
2023/10/16 00:49:06;;;;;;;3.50;0.90;;;7.80;99.90;;;;;;5046586;28;20457;-66
2023/10/16 00:51:38;;;;;;;4.28;1.02;;;7.80;99.90;;;;;;5046065;28;20398;-66
2023/10/16 00:54:16;;;;;;;3.55;1.10;;;7.90;99.90;;;;;;5039285;28;20048;-66
2023/10/16 00:56:47;;;;;;;2.50;1.00;;;7.90;99.90;;;;;;5050073;28;20383;-66
2023/10/16 00:59:23;;;;;;;3.35;1.30;;;7.90;99.90;;;;;;5060774;22;20034;-68
2023/10/16 01:01:52;;;;;;;3.88;1.15;;;7.90;99.90;;;;;;5037821;28;20077;-68
2023/10/16 01:04:20;;;;;;;4.97;1.90;;;7.90;99.90;;;;;;5044396;28;20069;-70
2023/10/16 01:06:46;;;;;;;5.05;1.10;;;7.90;99.90;;;;;;5051890;28;20048;-69
2023/10/16 01:09:24;;;;;;;4.80;1.40;;;7.90;99.90;;;;;;5039598;28;20506;-69
2023/10/16 01:11:54;;;;;;;7.45;1.88;;;7.90;99.90;;;;;;5038542;28;20064;-68
2023/10/16 01:14:20;;;;;;;4.38;1.45;;;7.90;99.90;;;;;;5042434;28;20113;-70
2023/10/16 01:16:46;;;;;;;4.65;1.60;;;7.90;99.90;;;;;;5037122;28;20479;-70
2023/10/16 01:19:14;;;;;;;7.03;1.60;;;7.90;99.90;;;;;;5042850;28;20451;-69
2023/10/16 01:21:39;;;;;;;4.97;1.60;;;7.90;99.90;;;;;;5044335;28;20282;-68
2023/10/16 01:24:12;;;;;;;4.03;1.35;;;7.90;99.90;;;;;;5045347;28;20554;-68
2023/10/16 01:26:41;;;;;;;5.88;1.80;;;7.90;99.90;;;;;;5051558;28;20195;-68
2023/10/16 01:29:10;;;;;;;5.25;1.58;;;7.90;99.90;;;;;;5051570;28;20041;-69
2023/10/16 01:31:37;;;;;;;6.53;1.80;;;7.90;99.90;;;;;;5050210;28;20120;-69
2023/10/16 01:34:04;;;;;;;10.27;2.20;;;7.80;99.90;;;;;;5048153;28;20445;-69
2023/10/16 01:36:33;;;;;;;4.65;1.70;;;7.80;99.90;;;;;;5046012;28;20048;-68
2023/10/16 01:39:00;;;;;;;5.95;2.08;;;7.80;99.90;;;;;;5045834;28;20087;-69
2023/10/16 01:41:26;;;;;;;7.65;2.10;;;7.70;99.90;;;;;;5043707;28;20075;-69
2023/10/16 01:43:52;;;;;;;7.95;2.35;;;7.70;99.90;;;;;;5050679;28;20033;-69
2023/10/16 01:46:18;;;;;;;7.78;2.38;;;7.70;99.90;;;;;;5050892;28;20516;-69
2023/10/16 01:48:46;;;;;;;7.97;2.42;;;7.70;99.90;;;;;;5038130;28;20045;-69
2023/10/16 01:51:18;;;;;;;8.60;2.45;;;7.70;99.90;;;;;;5033884;28;20056;-70
2023/10/16 01:53:47;;;;;;;7.93;2.92;;;7.70;99.90;;;;;;5040590;28;20270;-69
2023/10/16 01:56:14;;;;;;;6.65;2.60;;;7.70;99.90;;;;;;5049246;28;22000;-69
2023/10/16 01:58:52;;;;;;;8.05;2.63;;;7.70;99.90;;;;;;5034776;28;20077;-69
2023/10/16 02:01:19;;;;;;;7.80;2.88;;;7.80;99.90;;;;;;5042713;28;20060;-69
2023/10/16 02:03:47;;;;;;;6.50;2.65;;;7.80;99.90;;;;;;5037922;28;20049;-70
2023/10/16 02:06:15;;;;;;;10.60;2.70;;;7.80;99.90;;;;;;5036384;28;20037;-69
2023/10/16 02:08:41;;;;;;;6.40;2.67;;;7.80;99.90;;;;;;5045228;28;20065;-69
2023/10/16 02:11:10;;;;;;;6.63;3.17;;;7.80;99.90;;;;;;5047129;28;20035;-69
2023/10/16 02:13:36;;;;;;;6.75;2.80;;;7.80;99.90;;;;;;5049834;28;20103;-69
2023/10/16 02:16:06;;;;;;;6.28;2.90;;;8.20;99.90;;;;;;5051279;28;20041;-69
2023/10/16 02:18:37;;;;;;;7.90;3.40;;;7.80;99.90;;;;;;5046978;28;20103;-69
2023/10/16 02:21:13;;;;;;;8.07;3.05;;;7.80;99.90;;;;;;5052614;28;20041;-71
2023/10/16 02:23:48;;;;;;;7.68;3.10;;;7.80;99.90;;;;;;5055291;28;20036;-70
2023/10/16 02:26:18;;;;;;;8.43;3.08;;;7.80;99.90;;;;;;5051123;28;20094;-70
2023/10/16 02:28:49;;;;;;;10.50;2.97;;;7.80;99.90;;;;;;5050541;28;20051;-70
2023/10/16 02:31:19;;;;;;;11.38;3.45;;;7.80;99.90;;;;;;5050810;28;20033;-71
2023/10/16 02:33:54;;;;;;;11.75;3.67;;;7.70;99.90;;;;;;5047687;28;20079;-71
2023/10/16 02:36:21;;;;;;;7.25;2.88;;;7.70;99.90;;;;;;5052708;28;20478;-70
2023/10/16 02:38:47;;;;;;;11.10;3.40;;;7.70;99.90;;;;;;5046073;28;20044;-71
2023/10/16 02:41:19;;;;;;;5.95;2.97;;;7.70;99.90;;;;;;5043053;28;20040;-71
2023/10/16 02:43:46;;;;;;;10.40;3.50;;;8.20;99.90;;;;;;5045374;28;20033;-71
2023/10/16 02:46:13;;;;;;;8.82;3.05;;;7.70;99.90;;;;;;5047755;28;20036;-70
2023/10/16 02:48:42;;;;;;;10.63;3.30;;;7.60;99.90;;;;;;5050000;28;20048;-71
2023/10/16 02:51:09;;;;;;;11.77;3.22;;;7.60;99.90;;;;;;5036605;28;20473;-69
2023/10/16 02:53:42;;;;;;;5.88;3.20;;;7.60;99.90;;;;;;5042326;28;20483;-69
2023/10/16 02:56:08;;;;;;;8.43;2.83;;;7.60;99.90;;;;;;5040843;28;20033;-71
2023/10/16 02:58:55;;;;;;;8.13;3.20;;;7.60;99.90;;;;;;5041344;28;20489;-70
2023/10/16 03:01:21;;;;;;;5.30;2.78;;;7.60;99.90;;;;;;5037375;28;20068;-71
2023/10/16 03:03:48;;;;;;;7.15;2.97;;;7.60;99.90;;;;;;5048211;28;20036;-70
2023/10/16 03:06:20;;;;;;;8.65;3.13;;;7.50;99.90;;;;;;5040266;28;20068;-71
2023/10/16 03:08:49;;;;;;;8.35;2.67;;;7.50;99.90;;;;;;5038656;28;20185;-71
2023/10/16 03:11:15;;;;;;;7.95;3.15;;;7.50;99.90;;;;;;5038074;28;20033;-70
2023/10/16 03:13:43;;;;;;;9.00;3.50;;;7.50;99.90;;;;;;5056287;28;20039;-71
2023/10/16 03:16:26;;;;;;;6.47;3.10;;;7.50;99.90;;;;;;5045445;28;20063;-70
2023/10/16 03:19:02;;;;;;;5.82;2.90;;;7.50;99.90;;;;;;5045382;28;20044;-67
2023/10/16 03:21:28;;;;;;;7.55;2.80;;;7.50;99.90;;;;;;5040390;28;20124;-71
2023/10/16 03:23:54;;;;;;;7.72;3.10;;;7.50;99.90;;;;;;5048541;28;20087;-71
2023/10/16 03:26:33;;;;;;;7.93;3.03;;;7.50;99.90;;;;;;5035274;28;20440;-71
2023/10/16 03:29:00;;;;;;;6.97;2.55;;;7.50;99.90;;;;;;5046911;28;20398;-71
2023/10/16 03:31:27;;;;;;;5.57;2.55;;;7.50;99.90;;;;;;5045589;28;20060;-70
2023/10/16 03:33:56;;;;;;;6.20;2.55;;;7.50;99.90;;;;;;5053202;28;20037;-70
2023/10/16 03:36:25;;;;;;;5.10;2.47;;;7.50;99.90;;;;;;5052439;28;20037;-71
2023/10/16 03:38:51;;;;;;;8.70;2.80;;;7.50;99.90;;;;;;5051769;28;20037;-68
2023/10/16 03:43:56;;;;;;;7.57;2.47;;;7.50;99.90;;;;;;5047944;28;20037;-70
2023/10/16 03:46:24;;;;;;;7.30;2.50;;;7.50;99.90;;;;;;5052020;28;20056;-71
2023/10/16 03:48:49;;;;;;;6.80;2.53;;;7.50;99.90;;;;;;5055636;28;20394;-69
2023/10/16 03:51:16;;;;;;;6.63;2.13;;;7.50;99.90;;;;;;5052794;28;20097;-71
2023/10/16 03:53:44;;;;;;;10.25;2.38;;;7.50;99.90;;;;;;5057409;28;20033;-70
2023/10/16 03:56:11;;;;;;;6.40;2.58;;;7.60;99.90;;;;;;5057573;28;20112;-71
2023/10/16 03:58:46;;;;;;;5.25;2.15;;;7.60;99.90;;;;;;5050411;28;20045;-71
2023/10/16 04:01:12;;;;;;;6.57;2.10;;;7.60;99.90;;;;;;5057251;28;20043;-70
2023/10/16 04:03:47;;;;;;;5.10;1.80;;;7.60;99.90;;;;;;5046827;28;20046;-68
2023/10/16 04:06:20;;;;;;;5.88;2.00;;;7.60;99.90;;;;;;5041245;28;20044;-71
2023/10/16 04:08:49;;;;;;;7.40;2.20;;;7.70;99.90;;;;;;5042302;28;20239;-71
2023/10/16 04:11:19;;;;;;;7.38;2.22;;;7.70;99.90;;;;;;5049035;28;20037;-71
2023/10/16 04:13:47;;;;;;;4.68;1.80;;;7.70;99.90;;;;;;5048484;28;20495;-71
2023/10/16 04:21:45;;;;;;;7.30;1.75;;;7.70;99.90;;;;;;5041983;28;20499;-68
2023/10/16 04:29:46;;;;;;;7.28;1.90;;;7.70;99.90;;;;;;5042526;28;20388;-71
2023/10/16 04:35:02;;;;;;;6.18;1.90;;;7.80;99.90;;;;;;5058255;28;20080;-71
2023/10/16 05:08:59;;;;;;;5.40;2.45;;;7.70;99.90;;;;;;5041212;28;20331;-71
2023/10/16 05:17:21;;;;;;;5.25;1.90;;;7.80;99.90;;;;;;5049594;28;20041;-69
2023/10/16 05:19:53;;;;;;;5.13;2.08;;;7.80;99.90;;;;;;5042880;28;20463;-70
2023/10/16 06:14:34;;;;;;;5.95;2.40;;;8.00;99.90;;;;;;5043740;28;20041;-70
2023/10/16 06:17:00;;;;;;;5.78;2.47;;;8.00;99.90;;;;;;5048991;28;20076;-70
2023/10/16 06:19:26;;;;;;;9.50;2.67;;;8.10;99.90;;;;;;5048066;28;20033;-70
2023/10/16 06:22:06;;;;;;;4.65;2.30;;;8.10;99.90;;;;;;5048137;28;20032;-71
2023/10/16 06:24:44;;;;;;;6.82;2.85;;;8.10;99.90;;;;;;5051240;28;20033;-70
2023/10/16 06:27:11;;;;;;;6.78;2.58;;;8.20;99.90;;;;;;5049169;28;20033;-69
2023/10/16 06:29:49;;;;;;;8.00;2.80;;;8.20;99.90;;;;;;5047152;28;20171;-71
2023/10/16 06:32:18;;;;;;;6.55;2.70;;;8.30;99.90;;;;;;5045887;28;20058;-70
2023/10/16 06:34:57;;;;;;;7.05;2.50;;;8.20;99.90;;;;;;5046193;28;20036;-70
2023/10/16 06:37:24;;;;;;;7.43;3.10;;;8.30;99.90;;;;;;5046601;28;20162;-70
2023/10/16 06:39:54;;;;;;;7.95;3.10;;;8.30;99.90;;;;;;5044664;28;20049;-70
2023/10/16 06:42:20;;;;;;;8.15;2.80;;;8.30;99.90;;;;;;5046466;28;20029;-68
2023/10/16 06:44:53;;;;;;;8.25;3.00;;;8.30;99.90;;;;;;5043767;28;20104;-69
2023/10/16 06:47:41;;;;;;;6.22;3.00;;;8.30;99.90;;;;;;5049638;28;20040;-70
2023/10/16 06:50:54;;;;;;;6.38;3.15;;;8.30;99.90;;;;;;5045794;28;20502;-70
2023/10/16 06:53:00;;;;;;;9.57;3.13;;;8.40;99.90;;;;;;5034606;28;20041;-69
2023/10/16 06:55:25;;;;;;;6.07;3.00;;;8.40;99.90;;;;;;5047368;28;20041;-70
2023/10/16 06:57:51;;;;;;;6.22;3.03;;;8.50;99.90;;;;;;5042604;28;20029;-70
2023/10/16 07:00:27;;;;;;;8.20;3.50;;;8.50;99.90;;;;;;5049366;28;20144;-72
2023/10/16 07:02:56;;;;;;;9.40;3.83;;;8.50;99.90;;;;;;5046467;28;20114;-70
2023/10/16 07:05:41;;;;;;;7.35;3.15;;;8.50;99.90;;;;;;5039317;28;20048;-68
2023/10/16 07:08:09;;;;;;;7.15;3.20;;;8.50;99.90;;;;;;5021383;28;20124;-68
2023/10/16 07:10:40;;;;;;;10.75;3.40;;;8.60;99.90;;;;;;5035502;28;20104;-68
2023/10/16 07:13:07;;;;;;;7.20;3.10;;;8.60;99.90;;;;;;5049758;28;20037;-68
2023/10/16 07:15:32;;;;;;;8.68;3.20;;;8.60;99.90;;;;;;5041764;28;20043;-68
2023/10/16 07:18:04;;;;;;;5.57;3.03;;;8.60;99.90;;;;;;5045981;28;20120;-68
2023/10/16 07:20:51;;;;;;;6.57;3.20;;;8.60;99.90;;;;;;5029664;28;20456;-68
2023/10/16 07:23:17;;;;;;;11.80;3.53;;;8.70;99.90;;;;;;5038126;28;20259;-68
2023/10/16 07:25:54;;;;;;;8.05;3.05;;;8.70;99.90;;;;;;5032097;28;20039;-68
2023/10/16 07:28:21;;;;;;;7.13;3.05;;;8.70;99.90;;;;;;5036921;28;20123;-68
2023/10/16 07:30:46;;;;;;;8.23;3.38;;;8.80;99.90;;;;;;5041818;28;20037;-68
2023/10/16 07:33:15;;;;;;;10.18;3.22;;;8.80;99.90;;;;;;5043653;28;20094;-68
2023/10/16 07:35:45;;;;;;;7.05;3.17;;;8.80;99.90;;;;;;5040343;28;20076;-68
2023/10/16 07:38:20;;;;;;;7.18;3.10;;;8.80;99.90;;;;;;5042258;28;20076;-70
2023/10/16 07:40:54;;;;;;;9.93;3.20;;;8.90;99.90;;;;;;5030516;28;20039;-69
2023/10/16 07:43:29;;;;;;;6.90;3.05;;;8.90;99.90;;;;;;5036893;28;20061;-69
2023/10/16 07:48:41;;;;;;;8.13;3.17;;;9.10;99.90;;;;;;5038592;28;20049;-68
2023/10/16 07:51:07;;;;;;;7.13;2.97;;;9.10;99.90;;;;;;5043153;28;20072;-68
2023/10/16 07:53:37;;;;;;;5.80;2.85;;;9.10;99.90;;;;;;5044317;28;20037;-68
2023/10/16 07:56:03;;;;;;;10.20;3.25;;;9.20;99.90;;;;;;5048232;28;20047;-68
2023/10/16 07:58:47;;;;;;;7.70;2.83;;;9.20;99.90;;;;;;5043220;28;20084;-69
2023/10/16 08:03:41;;;;;;;6.75;2.60;;;9.30;99.90;;;;;;5035059;28;20037;-68
2023/10/16 08:06:17;;;;;;;7.30;2.95;;;9.30;99.90;;;;;;5038193;28;20044;-69
2023/10/16 08:08:48;;;;;;;7.93;3.40;;;9.30;99.90;;;;;;5032165;28;20049;-71
2023/10/16 08:11:18;;;;;;;5.68;2.67;;;9.30;99.90;;;;;;5032058;28;20045;-68
2023/10/16 08:13:49;;;;;;;5.07;2.70;;;9.30;99.90;;;;;;5046815;28;20132;-68
2023/10/16 08:16:27;;;;;;;5.70;2.63;;;9.30;99.90;;;;;;5043552;28;20036;-70
2023/10/16 08:18:53;;;;;;;7.28;2.40;;;9.40;99.90;;;;;;5052095;28;20045;-70
2023/10/16 08:21:24;;;;;;;5.00;2.60;;;9.40;99.90;;;;;;5044840;28;20068;-70
2023/10/16 08:23:53;;;;;;;8.00;2.70;;;9.40;99.90;;;;;;5044146;28;20068;-68
2023/10/16 08:26:28;;;;;;;4.97;2.40;;;9.50;99.90;;;;;;5044164;28;20041;-68
2023/10/16 08:31:44;;;;;;;6.90;2.47;;;9.50;99.90;;;;;;5042621;28;20101;-68
2023/10/16 08:34:20;;;;;;;7.60;3.05;;;9.60;99.90;;;;;;5036202;28;20034;-68
2023/10/16 08:36:53;;;;;;;6.43;2.83;;;9.60;99.90;;;;;;5043331;28;20053;-68
2023/10/16 08:39:21;;;;;;;6.97;2.80;;;9.70;99.90;;;;;;5045303;28;20505;-68
2023/10/16 08:42:00;;;;;;;5.20;2.70;;;9.80;99.90;;;;;;5035968;28;20038;-68
2023/10/16 08:44:28;;;;;;;7.10;2.78;;;9.80;99.90;;;;;;5048825;28;20040;-68
2023/10/16 08:49:24;;;;;;;11.45;3.67;;;9.90;99.90;;;;;;5040232;28;20109;-72
2023/10/16 08:52:03;;;;;;;8.77;2.90;;;9.90;99.90;;;;;;5046262;28;20037;-69
2023/10/16 08:55:14;;;;;;;7.40;2.88;;;10.00;99.90;;;;;;5047248;28;20116;-68
2023/10/16 08:57:25;;;;;;;10.67;2.57;;;10.00;99.90;;;;;;5038470;28;20045;-68
2023/10/16 08:59:51;;;;;;;6.00;2.28;;;10.10;99.90;;;;;;5052540;28;20037;-69
2023/10/16 09:02:19;;;;;;;6.45;2.30;;;10.10;99.90;;;;;;5035797;28;20068;-68
2023/10/16 09:04:48;;;;;;;7.07;2.38;;;10.20;99.90;;;;;;5044080;28;20126;-68
2023/10/16 09:07:16;;;;;;;8.18;2.40;;;10.30;99.90;;;;;;5036461;28;20124;-70
2023/10/16 09:09:43;;;;;;;5.72;2.47;;;10.30;99.90;;;;;;5042612;28;20037;-71
2023/10/16 09:12:12;;;;;;;6.97;2.78;;;10.30;99.90;;;;;;5043840;28;20037;-68
2023/10/16 09:14:40;;;;;;;6.28;2.45;;;10.40;99.90;;;;;;5045439;28;20045;-71
2023/10/16 09:17:06;;;;;;;7.25;2.17;;;10.40;99.90;;;;;;5044140;28;20033;-68
2023/10/16 09:19:34;;;;;;;6.75;2.22;;;10.50;99.90;;;;;;5051981;28;20110;-70
2023/10/16 09:22:04;;;;;;;6.00;2.13;;;10.50;99.90;;;;;;5049470;28;20037;-68
2023/10/16 09:24:33;;;;;;;7.43;2.28;;;10.60;99.90;;;;;;5047389;28;20076;-68
2023/10/16 09:26:59;;;;;;;6.78;2.22;;;10.60;99.90;;;;;;5042324;28;20124;-71
2023/10/16 09:29:25;;;;;;;6.70;2.40;;;10.60;99.90;;;;;;5038103;28;20120;-71
2023/10/16 09:31:51;;;;;;;7.95;2.55;;;10.70;99.90;;;;;;5041547;28;20033;-68
2023/10/16 09:34:25;;;;;;;7.90;2.47;;;10.80;99.90;;;;;;5041655;28;20080;-68
2023/10/16 09:39:37;;;;;;;5.75;2.28;;;10.90;99.90;;;;;;5044133;28;20053;-68
2023/10/16 09:42:12;;;;;;;4.85;2.35;;;11.00;99.90;;;;;;5047754;28;20033;-69
2023/10/16 09:44:40;;;;;;;5.03;1.63;;;11.10;99.90;;;;;;5048487;28;20033;-68
2023/10/16 09:47:25;;;;;;;6.40;1.58;;;11.10;99.90;;;;;;5046266;28;20102;-68
2023/10/16 09:49:53;;;;;;;5.95;1.60;;;11.20;99.90;;;;;;5042878;28;20368;-68
2023/10/16 09:52:22;;;;;;;7.05;1.98;;;11.30;99.90;;;;;;5042621;28;20478;-69
2023/10/16 09:54:52;;;;;;;5.90;1.48;;;11.30;99.90;;;;;;5049759;28;20110;-67
2023/10/16 09:57:22;;;;;;;6.38;1.50;;;11.30;99.90;;;;;;5041221;28;20051;-69
2023/10/16 10:00:00;;;;;;;3.95;1.50;;;11.40;99.90;;;;;;5043754;28;20047;-68
2023/10/16 10:02:27;;;;;;;6.75;1.77;;;11.40;99.90;;;;;;5045582;28;20394;-68
2023/10/16 10:05:03;;;;;;;4.97;1.77;;;11.50;99.90;;;;;;5046578;28;20175;-68
2023/10/16 10:07:35;;;;;;;6.88;1.80;;;11.50;99.90;;;;;;5052502;28;20036;-68
2023/10/16 10:11:04;;;;;;;4.17;1.40;;;11.60;99.90;;;;;;5044458;28;20040;-67
2023/10/16 10:12:52;;;;;;;5.65;1.40;;;11.60;99.90;;;;;;5036904;28;20289;-67
2023/10/16 10:15:26;;;;;;;7.18;1.92;;;11.70;99.90;;;;;;5044941;28;20099;-71
2023/10/16 10:17:55;;;;;;;4.50;1.77;;;11.70;99.90;;;;;;5040192;28;20041;-69
2023/10/16 10:20:32;;;;;;;5.00;1.45;;;11.80;99.90;;;;;;5049386;28;20040;-67
2023/10/16 10:23:08;;;;;;;4.13;1.70;;;11.80;99.90;;;;;;5047409;28;20200;-68
2023/10/16 10:25:40;;;;;;;7.63;1.60;;;11.90;99.90;;;;;;5042163;28;20037;-69
2023/10/16 10:28:17;;;;;;;7.72;1.30;;;12.00;99.90;;;;;;5044295;28;20398;-67
2023/10/16 10:30:45;;;;;;;2.90;1.17;;;12.10;99.90;;;;;;5034865;28;20059;-68
2023/10/16 10:33:36;;;;;;;6.60;1.25;;;12.20;99.90;;;;;;5053712;28;20041;-68
2023/10/16 10:36:30;;;;;;;5.70;1.52;;;12.30;99.90;;;;;;5037615;28;20042;-67
2023/10/16 10:39:21;;;;;;;8.55;1.50;;;12.40;99.90;;;;;;5037548;28;20044;-67
2023/10/16 10:42:08;;;;;;;4.35;1.10;;;12.60;99.90;;;;;;5044261;28;20518;-68
2023/10/16 10:44:43;;;;;;;5.72;1.20;;;12.70;99.90;;;;;;5047691;28;20037;-68
2023/10/16 10:47:38;;;;;;;7.63;1.75;;;12.90;99.90;;;;;;5037845;28;20069;-67
2023/10/16 10:50:13;;;;;;;5.47;1.30;;;13.00;99.90;;;;;;5034672;28;20408;-67
2023/10/16 10:52:39;;;;;;;5.35;1.33;;;13.20;99.90;;;;;;5050318;28;20305;-67
2023/10/16 10:55:14;;;;;;;5.80;1.42;;;13.30;99.90;;;;;;5040232;28;20080;-70
2023/10/16 10:57:40;;;;;;;4.93;1.38;;;13.40;99.90;;;;;;5041996;28;20425;-67
2023/10/16 11:05:22;;;;;;;7.20;1.42;;;13.60;99.90;;;;;;5036625;28;20042;-67
2023/10/16 11:10:36;;;;;;;6.30;1.75;;;13.70;99.90;;;;;;5048658;28;20174;-68
2023/10/16 11:13:05;;;;;;;5.95;1.23;;;13.70;99.90;;;;;;5041824;28;20037;-67
2023/10/16 11:15:32;;;;;;;6.40;1.30;;;13.80;99.90;;;;;;5049175;28;20440;-69
2023/10/16 11:18:05;;;;;;;8.68;1.63;;;13.90;99.90;;;;;;5042893;28;20128;-67
2023/10/16 11:20:36;;;;;;;7.70;1.35;;;14.00;99.90;;;;;;5033562;28;20107;-67
2023/10/16 11:23:12;;;;;;;5.80;1.50;;;14.00;99.90;;;;;;5043937;28;20108;-70
2023/10/16 11:25:40;;;;;;;6.25;1.52;;;14.00;99.90;;;;;;5048263;28;20080;-68
2023/10/16 11:28:08;;;;;;;4.15;1.75;;;14.00;99.90;;;;;;5048568;28;20049;-71
2023/10/16 11:30:41;;;;;;;4.57;1.30;;;14.10;99.90;;;;;;5041894;28;20037;-69
2023/10/16 11:33:09;;;;;;;8.70;1.98;;;14.10;99.90;;;;;;5041713;28;20053;-67
2023/10/16 11:35:35;;;;;;;6.82;1.50;;;14.10;99.90;;;;;;5043772;28;20041;-68
2023/10/16 11:38:19;;;;;;;5.88;1.30;;;14.10;99.90;;;;;;5038182;28;20480;-67
2023/10/16 11:40:47;;;;;;;3.75;1.38;;;14.10;99.90;;;;;;5041583;28;20443;-67
2023/10/16 11:43:14;;;;;;;4.35;1.52;;;14.20;99.90;;;;;;5046259;28;20048;-67
2023/10/16 11:45:42;;;;;;;4.20;1.13;;;14.10;99.90;;;;;;5044962;28;20070;-67
2023/10/16 11:48:24;;;;;;;4.40;1.30;;;14.20;99.90;;;;;;5035201;28;20037;-67
2023/10/16 11:50:53;;;;;;;;;;;14.20;99.90;;;;;;5034209;28;20048;-67
2023/10/16 11:53:28;;;;;;;6.80;1.42;;;14.20;99.90;;;;;;5035481;28;19916;-69
2023/10/16 11:55:54;;;;;;;5.35;1.48;;;14.20;99.90;;;;;;5042308;28;20061;-67
2023/10/16 11:58:23;;;;;;;8.77;2.03;;;14.20;99.90;;;;;;5047435;28;20491;-67
2023/10/16 12:00:53;;;;;;;3.78;1.33;;;14.10;99.90;;;;;;5040183;28;20095;-70
2023/10/16 12:03:19;;;;;;;6.00;1.30;;;14.10;99.90;;;;;;5049430;28;20055;-70
2023/10/16 12:05:45;;;;;;;4.95;1.20;;;14.00;99.90;;;;;;5049534;28;20033;-69
2023/10/16 12:08:10;;;;;;;3.67;1.15;;;13.90;99.90;;;;;;5053137;28;20044;-71
2023/10/16 12:10:36;;;;;;;5.75;1.30;;;13.70;99.90;;;;;;5041611;28;20037;-68
2023/10/16 12:13:03;;;;;;;5.18;1.25;;;13.70;99.90;;;;;;5045706;28;20025;-67
2023/10/16 12:15:29;;;;;;;4.53;1.20;;;13.60;99.90;;;;;;5052662;28;20330;-67
2023/10/16 12:17:55;;;;;;;7.90;1.30;;;13.60;99.90;;;;;;5051196;28;20040;-68
2023/10/16 12:20:26;;;;;;;6.82;1.60;;;13.60;99.90;;;;;;5044740;28;20152;-66
2023/10/16 12:22:52;;;;;;;5.20;1.48;;;13.50;99.90;;;;;;5051871;28;20380;-67
2023/10/16 12:25:18;;;;;;;4.97;1.25;;;13.50;99.90;;;;;;5052021;28;20040;-70
2023/10/16 12:27:45;;;;;;;4.00;1.17;;;13.60;99.90;;;;;;5048331;28;20158;-67
2023/10/16 12:30:15;;;;;;;5.82;1.65;;;13.60;99.90;;;;;;5053491;28;20487;-69
2023/10/16 12:32:41;;;;;;;5.30;1.35;;;13.70;99.90;;;;;;5047748;28;20090;-67
2023/10/16 12:35:11;;;;;;;8.20;1.33;;;13.70;99.90;;;;;;5045880;28;20037;-67
2023/10/16 12:37:38;;;;;;;8.90;1.70;;;13.70;99.90;;;;;;5040235;28;20044;-69
2023/10/16 12:42:48;;;;;;;8.05;1.40;;;13.90;99.90;;;;;;5038589;28;20041;-67
2023/10/16 12:45:14;;;;;;;6.55;1.20;;;14.00;99.90;;;;;;5040966;28;20025;-67
2023/10/16 12:47:40;;;;;;;6.28;1.40;;;14.10;99.90;;;;;;5035077;28;20037;-71
2023/10/16 12:50:07;;;;;;;6.53;1.25;;;14.10;99.90;;;;;;5037729;28;20095;-70
2023/10/16 12:52:39;;;;;;;7.80;1.63;;;14.20;99.90;;;;;;5036130;28;20069;-68
2023/10/16 12:55:09;;;;;;;5.00;1.42;;;14.30;99.90;;;;;;5036434;28;20034;-67
2023/10/16 12:57:34;;;;;;;4.95;1.40;;;14.30;99.90;;;;;;5045579;28;20047;-68
2023/10/16 13:00:00;;;;;;;4.32;1.20;;;14.30;99.90;;;;;;5057135;28;20021;-69
2023/10/16 13:02:26;;;;;;;3.70;1.42;;;14.30;99.90;;;;;;5037822;28;20544;-69
2023/10/16 13:04:52;;;;;;;4.22;1.30;;;14.30;99.90;;;;;;5035916;28;20120;-67
2023/10/16 13:07:20;;;;;;;7.15;1.30;;;14.30;99.90;;;;;;5046369;28;20045;-67
2023/10/16 13:09:47;;;;;;;4.80;1.40;;;14.30;99.90;;;;;;5042104;28;20103;-67
2023/10/16 13:12:13;;;;;;;4.57;1.10;;;14.40;99.90;;;;;;5048520;28;20033;-67
2023/10/16 13:14:39;;;;;;;3.30;1.20;;;14.40;99.90;;;;;;5047790;28;20479;-67
2023/10/16 13:17:08;;;;;;;7.25;1.42;;;14.40;99.90;;;;;;5043130;28;20373;-68
2023/10/16 13:19:34;;;;;;;5.25;1.42;;;14.40;99.90;;;;;;5043519;28;20036;-67
2023/10/16 13:22:07;;;;;;;7.78;1.30;;;14.40;99.90;;;;;;5042957;28;20032;-67
2023/10/16 13:24:57;;;;;;;7.35;1.58;;;14.40;99.90;;;;;;5036020;28;20044;-68
2023/10/16 13:27:27;;;;;;;5.45;1.52;;;14.50;99.90;;;;;;5036988;28;20052;-67
2023/10/16 13:29:56;;;;;;;6.88;1.63;;;14.60;99.90;;;;;;5042032;28;20032;-68
2023/10/16 13:32:21;;;;;;;6.85;2.08;;;14.60;99.90;;;;;;5048495;28;20033;-67
2023/10/16 13:34:47;;;;;;;4.75;1.50;;;14.60;99.90;;;;;;5043060;28;20610;-69
2023/10/16 13:37:13;;;;;;;6.50;1.45;;;14.60;99.90;;;;;;5040712;28;20128;-70
2023/10/16 13:39:39;;;;;;;5.30;1.42;;;14.60;99.90;;;;;;5041633;28;20033;-67
2023/10/16 13:42:08;;;;;;;7.50;1.75;;;14.50;99.90;;;;;;5033565;28;20393;-67
2023/10/16 13:44:37;;;;;;;5.18;1.23;;;14.50;99.90;;;;;;5047621;28;20083;-67
2023/10/16 13:47:06;;;;;;;5.95;1.23;;;14.40;99.90;;;;;;5043529;28;20029;-67
2023/10/16 13:49:36;;;;;;;5.75;1.67;;;14.30;99.90;;;;;;5046791;28;20048;-67
2023/10/16 13:52:03;;;;;;;4.22;1.40;;;14.30;99.90;;;;;;5052952;28;20036;-68
2023/10/16 13:54:31;;;;;;;5.32;1.25;;;14.20;99.90;;;;;;5039343;28;20117;-67
2023/10/16 13:56:56;;;;;;;3.50;1.27;;;14.10;99.90;;;;;;5047917;28;20045;-66
2023/10/16 13:59:22;;;;;;;3.60;1.20;;;14.00;99.90;;;;;;5039600;28;20037;-66
2023/10/16 14:01:48;;;;;;;6.07;1.40;;;14.00;99.90;;;;;;5044028;28;20116;-66
2023/10/16 14:04:16;;;;;;;5.28;1.30;;;13.90;99.90;;;;;;5042137;28;20033;-69
2023/10/16 14:06:51;;;;;;;6.88;1.30;;;13.80;99.90;;;;;;5045484;28;20109;-66
2023/10/16 14:09:19;;;;;;;6.75;1.30;;;13.80;99.90;;;;;;5046447;28;20068;-66
2023/10/16 14:11:49;;;;;;;4.53;1.40;;;13.70;99.90;;;;;;5038155;28;20049;-66
2023/10/16 14:14:19;;;;;;;6.47;1.52;;;13.70;99.90;;;;;;5031103;28;20406;-66
2023/10/16 14:16:52;;;;;;;6.55;1.80;;;13.60;99.90;;;;;;5042171;28;20073;-67
2023/10/16 14:19:22;;;;;;;5.18;1.40;;;13.60;99.90;;;;;;5049969;28;20448;-69
2023/10/16 14:21:52;;;;;;;7.22;1.60;;;13.50;99.90;;;;;;5038676;28;20029;-69
2023/10/16 14:24:25;;;;;;;5.72;1.42;;;13.40;99.90;;;;;;5040429;28;20037;-72
2023/10/16 14:26:54;;;;;;;2.40;1.05;;;13.40;99.90;;;;;;5038536;28;20058;-69
2023/10/16 14:29:23;;;;;;;9.63;1.60;;;13.30;99.90;;;;;;5046228;28;20052;-66
2023/10/16 14:31:51;;;;;;;4.85;1.40;;;13.30;99.90;;;;;;5047161;28;20502;-65
2023/10/16 14:34:21;;;;;;;6.50;1.30;;;13.20;99.90;;;;;;5048300;28;20480;-69
2023/10/16 14:36:49;;;;;;;6.28;1.40;;;13.20;99.90;;;;;;5043120;28;20060;-66
2023/10/16 14:39:15;;;;;;;6.55;1.55;;;13.20;99.90;;;;;;5044863;28;20037;-66
2023/10/16 14:41:41;;;;;;;4.97;1.25;;;13.10;99.90;;;;;;5044639;28;20052;-66
2023/10/16 14:44:09;;;;;;;6.20;1.42;;;13.10;99.90;;;;;;5045858;28;20496;-67
2023/10/16 14:46:38;;;;;;;3.83;1.27;;;12.90;99.90;;;;;;5047162;28;20342;-66
2023/10/16 14:49:08;;;;;;;6.15;1.38;;;13.00;99.90;;;;;;5042001;28;20150;-66
2023/10/16 14:51:40;;;;;;;4.57;1.30;;;12.90;99.90;;;;;;5049425;28;20040;-67
2023/10/16 14:54:06;;;;;;;;;;;12.90;99.90;;;;;;5042984;28;20048;-67
2023/10/16 14:56:36;;;;;;;7.35;1.50;;;12.80;99.90;;;;;;5051230;28;19923;-67
2023/10/16 14:59:22;;;;;;;5.28;1.30;;;12.80;99.90;;;;;;5036727;28;20099;-67
2023/10/16 15:01:50;;;;;;;6.43;1.42;;;12.80;99.90;;;;;;5044327;28;20036;-67
2023/10/16 15:04:17;;;;;;;6.40;2.20;;;12.70;99.90;;;;;;5049620;28;20454;-67
2023/10/16 15:06:44;;;;;;;7.15;2.35;;;12.70;99.90;;;;;;5047598;28;20099;-67
2023/10/16 15:09:15;;;;;;;6.55;2.70;;;12.70;99.90;;;;;;5049369;28;20076;-67
2023/10/16 15:11:42;;;;;;;6.03;2.40;;;12.70;99.90;;;;;;5048981;28;20487;-67
2023/10/16 15:14:08;;;;;;;8.50;2.50;;;12.70;99.90;;;;;;5049787;28;20079;-67
2023/10/16 15:16:34;;;;;;;8.75;2.70;;;12.60;99.90;;;;;;5043063;28;20077;-67
2023/10/16 15:19:01;;;;;;;3.22;2.05;;;12.60;99.90;;;;;;5037555;28;20119;-67